ImprimablePdf
Brussels, 10/10/2010, BEL - Brussels Marathon & Half Marathon
Liste des rapports > Half Marathon - Classement + Video
Recherche: Page: 1 2 3 4 5 6 7 8 9 10 11 12 13 14 15 16 17 18 19 [20] 21 22 23 24 25
4916 Entrées
 
Have a look to your pictures by clicking on the Sportograf Icon in the left side!

Les réclamations ne sont plus acceptées, les résultats sont considérés comme définitifs.
Catégorie
PosNrNomAgeIOCTempsTkmMoy.RangNomLocalité
Vos photos grâce à Sportograf3801.8162BARRY Thierno Ousmane16BEL2:08:316:06 9.851224SEHBRUXELLES 1
Vos photos grâce à Sportograf3802.4289MORIKAWA Atsushi36BEL2:08:336:06 9.85570M35AUDERGHEM
Vos photos grâce à Sportograf3803.6199VAN DOORN Petro46NLD2:08:346:06 9.85377M45ZAAMSLAG
Vos photos grâce à Sportograf3804.7970PELLEGRIN Marc55BEL2:08:346:06 9.85233M50ROSIERES
Vos photos grâce à Sportograf3805.7975CROIMANS Bert28BEL2:08:356:06 9.841225SEHMAASEIK
Vos photos grâce à Sportograf3806.9301TRONCO Emmanuel38BEL2:08:356:06 9.84571M35
Vos photos grâce à Sportograf3807.4627FSPECHT Barbara38BEL2:08:356:06 9.84116F35WERCHTER
Vos photos grâce à Sportograf3808.9715HUEMER Bernhard22BEL2:08:376:06 9.841226SEH
Vos photos grâce à Sportograf3809.5642FDE MEYER Veerle40BEL2:08:386:06 9.8499F40BRASSCHAAT
Vos photos grâce à Sportograf3810.3907FTHOMYRE Catherine50FRA2:08:406:06 9.8439F50PLESCOP
Vos photos grâce à Sportograf3811.4502VAN DE STEEN Virginie42BEL2:08:416:06 9.84471M40HAACHT
Vos photos grâce à Sportograf3812.5494FGUDMUNDSDOTTIR Gudrun37BEL2:08:416:06 9.84117F35IXELLES
Vos photos grâce à Sportograf3813.5939DIERTENS Harke38LUX2:08:426:07 9.83572M35DALHEIM
Vos photos grâce à Sportograf3814.3577DE LOOF Jean Marc54BEL2:08:426:07 9.83234M50BRUXELLES 9
Vos photos grâce à Sportograf3815.5224PLUMAT Olivier42BEL2:08:426:07 9.83472M40BRUXELLES
Vos photos grâce à Sportograf3816.6480FMARTIN Gladys17BEL2:08:446:07 9.83316SEFBIEVRE
Vos photos grâce à Sportograf3817.4838COTE Jean-Marc40FRA2:08:446:07 9.83573M35DAMPIERRE
Vos photos grâce à Sportograf3818.9213FPASTILLERO Emmy43BEL2:08:446:07 9.83100F40BORNEM
Vos photos grâce à Sportograf3819.6309FCOTE Severine40FRA2:08:456:07 9.83118F35DAMPIERRE
Vos photos grâce à Sportograf3820.3850FCHEVRE RachelFRA2:08:456:07 9.83-GRANDFONTAINE
Vos photos grâce à Sportograf3821.6527FNOBEL Paula26NLD2:08:466:07 9.83317SEFSPIJKENISSE
Vos photos grâce à Sportograf3822.6005FSNIJDER Ineke51NLD2:08:466:07 9.8340F50SPIJKENISSE
Vos photos grâce à Sportograf3823.4414VERSCHUEREN Marc54BEL2:08:476:07 9.83235M50LEEST
Vos photos grâce à Sportograf3824.5631FVAN KERCKHOVEN Ilse35BEL2:08:486:07 9.83119F35BRASSCHAAT
Vos photos grâce à Sportograf3825.4245DECHAMPS David41BEL2:08:486:07 9.83473M40VILVOORDE
Vos photos grâce à Sportograf3826.4876DE TROYER Jeroen29BEL2:08:496:07 9.831227SEHHEVERLEE
Vos photos grâce à Sportograf3827.6275BOTERBERG Kristof35BEL2:08:496:07 9.83574M35MOORSEL
Vos photos grâce à Sportograf3828.4124PEDERSEN Preben Hendel48DNK2:08:506:07 9.83378M45BIRKEROD
Vos photos grâce à Sportograf3829.8418STELLA Carlo30ITA2:08:506:07 9.831228SEH
Vos photos grâce à Sportograf3830.4748HELLEMANS Steven39BEL2:08:506:07 9.82575M35TERHAGEN (RUMST)
Vos photos grâce à Sportograf3831.8435FCHAMPAGNE Anne42BEL2:08:516:07 9.82101F40LASNE
Vos photos grâce à Sportograf3832.6490IRVINE James49BEL2:08:526:07 9.82379M45LA HULPE
Vos photos grâce à Sportograf3833.5842JANSSENS Paul50BEL2:08:526:07 9.82236M50FOLX-LES-CAVES
Vos photos grâce à Sportograf3834.9620VERDOOT Claude54BEL2:08:536:07 9.82237M50BRUXELLES 7
Vos photos grâce à Sportograf3835.9618FURBIETA Esther27BEL2:08:546:07 9.82318SEFBRUXELLES 7
Vos photos grâce à Sportograf3836.4662MORK Rune45DNK2:08:566:07 9.82380M45CHARLOTTENLUND
Vos photos grâce à Sportograf3837.9252LOGGHE Jonathan28BEL2:08:566:07 9.821229SEH
Vos photos grâce à Sportograf3838.9253DELMOTTE Martin31BEL2:08:566:07 9.821230SEH
Vos photos grâce à Sportograf3839.7393FSKINNER Nathalie30BEL2:08:596:07 9.81319SEFX
Vos photos grâce à Sportograf3840.7389FNAZERALI Julie46BEL2:08:596:07 9.81105F45BRUSSEL 4
Vos photos grâce à Sportograf3841.9936PLATTEAU Herman53BEL2:08:596:07 9.81238M50WIJNEGEM
Vos photos grâce à Sportograf3842.9762FSTIERNET Yseult29BEL2:09:006:07 9.81320SEFIXELLES
Vos photos grâce à Sportograf3843.9935PLATTEAU Kris34BEL2:09:006:07 9.811231SEHDEURNE
Vos photos grâce à Sportograf3844.6399FDEGEYTER Nina24BEL2:09:026:07 9.81321SEFSINT PITERS LEEUW
Vos photos grâce à Sportograf3845.7402FVAN DEN DRIESSCHE Melissa27BEL2:09:026:07 9.81322SEFWEZEMAAL
Vos photos grâce à Sportograf3846.4373DE TERWANGNE Philippe47BEL2:09:026:07 9.81381M45BRUXELLES
Vos photos grâce à Sportograf3847.6193FVASCEGE Oksana32BEL2:09:036:08 9.81323SEFSCHAERBEEK
Vos photos grâce à Sportograf3848.4403BUELENS Hans31BEL2:09:046:08 9.811232SEHBONHEIDEN
Vos photos grâce à Sportograf3849.7080JANS Theo40BEL2:09:056:08 9.81474M40TONGEREN
Vos photos grâce à Sportograf3850.5434RYCKAERT Thomas25BEL2:09:086:08 9.801233SEHLINKEBEEK
Vos photos grâce à Sportograf3851.8467SALGADO Francois37FRA2:09:106:08 9.80576M35
Vos photos grâce à Sportograf3852.3687DELUCA SergeBEL2:09:116:08 9.80-UCCLE
Vos photos grâce à Sportograf3853.8070FFONTAINE Ginette58BEL2:09:116:08 9.8019F55JODOIGNE
Vos photos grâce à Sportograf3854.9585FWINAND Valerie34BEL2:09:126:08 9.80324SEF
Vos photos grâce à Sportograf3855.5949VANHEUVERZWIJN Gauthier50BEL2:09:136:08 9.80382M45RIXENSART
Vos photos grâce à Sportograf3856.7536FVAN OPPENS Ann34BEL2:09:146:08 9.79325SEFEINDHOUT
Vos photos grâce à Sportograf3857.6139VANHEUVERZWIJN Maxime19BEL2:09:146:08 9.791234SEHRIXENSART
Vos photos grâce à Sportograf3858.7405JACQUEMIN Sebastien33BEL2:09:156:08 9.791235SEHLINCENT
Vos photos grâce à Sportograf3859.6329PIERAERT Erik37BEL2:09:156:08 9.79577M35HAALTERT
Vos photos grâce à Sportograf3860.3051MUSTAPARTA Gunnar65NOR2:09:156:08 9.7918M65KLOFTA
Vos photos grâce à Sportograf3861.3763BALBIR KhindaGBR2:09:166:08 9.79-
Vos photos grâce à Sportograf3862.6842KERN Philippe48BEL2:09:176:08 9.79383M45BRUXELLES 6
Vos photos grâce à Sportograf3863.8017LEROY Henk49BEL2:09:186:08 9.79384M45GERAARDSBERGEN
Vos photos grâce à Sportograf3864.7715WEYNE Steve25BEL2:09:216:08 9.791236SEHMARCHIN
Vos photos grâce à Sportograf3865.9304FBORGERS Annelies27BEL2:09:236:08 9.78326SEF
Vos photos grâce à Sportograf3866.7301THIEBAULD Charles-Dominique27BEL2:09:236:08 9.781237SEHBRUXELLES
Vos photos grâce à Sportograf3867.5035BACHMANN Manfred42DEU2:09:256:09 9.78475M40BERGISCH GLADBACH
Vos photos grâce à Sportograf3868.4689FBOETHIUS Eva38BEL2:09:256:09 9.78120F35BRUXELLES 5
Vos photos grâce à Sportograf3869.4907FMARKS Sarah43BEL2:09:256:09 9.78102F40MOORSEL TERVUREN
Vos photos grâce à Sportograf3870.4688FTRYSELIUS Elisabeth30BEL2:09:266:09 9.78327SEFAUDERGHEM
Vos photos grâce à Sportograf3871.6763LODDEWIJKX Johan45BEL2:09:266:09 9.78385M45WIJGMAAL
Vos photos grâce à Sportograf3872.3680FBULTYNCK Bernadette64BEL2:09:266:09 9.786F60MEISE
Vos photos grâce à Sportograf3873.8449FJAGARE Lauma34LAO2:09:306:09 9.77328SEF
Vos photos grâce à Sportograf3874.6446SCHAEPDRIJVER Willy65BEL2:09:306:09 9.7719M65KNOKKE-HEIST
Vos photos grâce à Sportograf3875.8371SCHREIB David31CZE2:09:306:09 9.771238SEHIXELLES
Vos photos grâce à Sportograf3876.3749FKAY Angela51GBR2:09:316:09 9.7741F50WIILINGTON BEDFORD
Vos photos grâce à Sportograf3877.8084NR 8084 -2:09:316:09 9.77-
Vos photos grâce à Sportograf3878.8316FLEON Cynthia2BEL2:09:326:09 9.77329SEF
Vos photos grâce à Sportograf3879.5451BAILEY Heather26BEL2:09:326:09 9.771239SEHBRUSSELS
Vos photos grâce à Sportograf3880.5484FROSENKRANZ Katherina32DEU2:09:336:09 9.77330SEFPEGNITZ
Vos photos grâce à Sportograf3881.6351BROEREN Arian46NLD2:09:346:09 9.77386M45SCHIJNDEL
Vos photos grâce à Sportograf3882.4798GOORMANS Wim44BEL2:09:346:09 9.77476M40BAZEL
Vos photos grâce à Sportograf3883.5762FVERBEECK Anne41BEL2:09:436:09 9.76103F40BRASSCHAAT
Vos photos grâce à Sportograf3884.5781BELPAEME Serge35BEL2:09:446:09 9.76578M35HANSBEKE
Vos photos grâce à Sportograf3885.3760PRICE Leigh48GBR2:09:446:09 9.76387M45SHARNBROOK BEDFORD
Vos photos grâce à Sportograf3886.5205TRAVNICEK Inna30DEU2:09:456:10 9.761240SEHEBENSFELD
Vos photos grâce à Sportograf3887.7309FDECRAMER Sigrid33BEL2:09:456:10 9.76331SEFBRUXELLES 1
Vos photos grâce à Sportograf3888.7937HOLVENYI Gyorgy48BEL2:09:456:10 9.75388M45WEZEMBEEK OPPEM
Vos photos grâce à Sportograf3889.7296FDUYCK Anja42BEL2:09:466:10 9.75104F40MEISE
Vos photos grâce à Sportograf3890.7308FPIEYNS Leen32BEL2:09:466:10 9.75332SEFGRIMBERGEN
Vos photos grâce à Sportograf3891.8178FBUTS Caroline27BEL2:09:466:10 9.75333SEFBRUXELLES 1
Vos photos grâce à Sportograf3892.8401BUSSCHOTS Erik34BEL2:09:466:10 9.751241SEH
Vos photos grâce à Sportograf3893.9314DOMAZETIS Christos44BEL2:09:476:10 9.75477M40BRUXELLES
Vos photos grâce à Sportograf3894.8402MERTENS Alain392:09:476:10 9.75579M35
Vos photos grâce à Sportograf3895.5513FPOORT Annemie58BEL2:09:486:10 9.7520F55ZELE
Vos photos grâce à Sportograf3896.4902FMULLER Brigitte50BEL2:09:496:10 9.75106F45BRUXELLES
Vos photos grâce à Sportograf3897.5619BLIKI Veronique34BEL2:09:506:10 9.751242SEHWEZEMAAL
Vos photos grâce à Sportograf3898.6740FSTEVENS Nancy32BEL2:09:506:10 9.75334SEFMEISE
Vos photos grâce à Sportograf3899.8015BERCK Benoit28BEL2:09:506:10 9.751243SEHVIEUSART
Vos photos grâce à Sportograf3900.4494BONNANT Michel61FRA2:09:516:10 9.7550M60VANNES
Vos photos grâce à Sportograf3901.8018LIMBOURG Yves43BEL2:09:516:10 9.75478M40BASTOGNE
Vos photos grâce à Sportograf3902.3408VAN WAESBERGHE Rodolphe31BEL2:09:526:10 9.751244SEHHAULCHIN
Vos photos grâce à Sportograf3903.7192FESCHBACH Sylvie45FRA2:09:536:10 9.75107F45ERNOLSHEIM SUR BRUCHE
Vos photos grâce à Sportograf3904.7196FRICHTER Celine39FRA2:09:536:10 9.75121F35DUTTLENHEIM
Vos photos grâce à Sportograf3905.7203FTOUSSAINT Muriel41FRA2:09:536:10 9.75105F40ERNOLSHEIM SUR BRUCHE
Vos photos grâce à Sportograf3906.9386FDE PAUW Pascale49BEL2:09:556:10 9.74108F45JUMET (CHARLEROI)
Vos photos grâce à Sportograf3907.4735DEGAND Frederic38BEL2:09:556:10 9.74580M35BRUXELLES
Vos photos grâce à Sportograf3908.7964FDEMOL Corine42BEL2:09:566:10 9.74106F40BRUXELLES 9
Vos photos grâce à Sportograf3909.9257WILLEMS Frederic36BEL2:09:566:10 9.74581M35
Vos photos grâce à Sportograf3910.9336NEYKEN Vincent37BEL2:09:576:10 9.74582M35
Vos photos grâce à Sportograf3911.5287FVANDEN EEDE Liesbeth23BEL2:09:576:10 9.74335SEFSINT-MARTENS-BODEGEM
Vos photos grâce à Sportograf3912.3926DE WILDE Koen44BEL2:09:586:10 9.74479M40BORGERHOUT
Vos photos grâce à Sportograf3913.8135STEURBAUT Geert49BEL2:09:586:10 9.74389M45MAARKEDAL
Vos photos grâce à Sportograf3914.8136FDHAEZE Katleen41BEL2:09:586:10 9.74107F40MAARKEDAL
Vos photos grâce à Sportograf3915.4397FSTIJNEN Ines25BEL2:09:586:10 9.74336SEFBRASSCHAAT
Vos photos grâce à Sportograf3916.8109VAN LEEMPUT Bart45BEL2:09:596:10 9.74480M40TISSELT
Vos photos grâce à Sportograf3917.4954FSMETS Liesbeth25BEL2:09:596:10 9.74337SEFEVERBERG
Vos photos grâce à Sportograf3918.5797FDEVILLE Stephanie34BEL2:09:596:10 9.74338SEFBRECHT
Vos photos grâce à Sportograf3919.4872APPELTANTS Hadrien38BEL2:09:596:10 9.74583M35BRUXELLES
Vos photos grâce à Sportograf3920.7829PHAM NGOC Lanh40BRN2:10:006:10 9.74481M40BRUSSELS
Vos photos grâce à Sportograf3921.5968FRAISIN Nicole-Lydie55FRA2:10:006:10 9.7421F55PARIS
Vos photos grâce à Sportograf3922.4222FDE GROODT Dana29BEL2:10:046:10 9.73339SEFVOSSEM
Vos photos grâce à Sportograf3923.4667FDAELEMANS Isabelle29BEL2:10:046:10 9.73340SEFTERVUREN
Vos photos grâce à Sportograf3924.3590SCHAHEYS Pascal37BEL2:10:056:10 9.73584M35WOLUWE-SAINT-PIERRE
Vos photos grâce à Sportograf3925.5102FHUDZIK Joanna32USA2:10:056:10 9.73341SEFGLADE HILL, VA
Vos photos grâce à Sportograf3926.7162MACQ Jean47BEL2:10:056:10 9.73390M45LOUVAIN-LA-NEUVE
Vos photos grâce à Sportograf3927.5852SNELLINGS Luc44BEL2:10:076:11 9.73482M40MAISIERES
Vos photos grâce à Sportograf3928.4879DE COSTER Gert37BEL2:10:096:11 9.73585M35DENDERHOUTEM
Vos photos grâce à Sportograf3929.7686PLANCKAERT Koen22BEL2:10:116:11 9.721245SEHINGELMUNSTER
Vos photos grâce à Sportograf3930.4794VANDEN BRANDE Ilse45BEL2:10:136:11 9.72391M45IDDERGEM
Vos photos grâce à Sportograf3931.9989DERAEDT Willem23BEL2:10:136:11 9.721246SEHHASSELT
Vos photos grâce à Sportograf3932.8055GOVAERT Tom29BEL2:10:146:11 9.721247SEHMERCHTEM
Vos photos grâce à Sportograf3933.7016FDUBOIS Katie33BEL2:10:146:11 9.72342SEFMERCHTEM
Vos photos grâce à Sportograf3934.6155FINET Franck45FRA2:10:166:11 9.72392M45BOULOGNE BILLANCOURT
Vos photos grâce à Sportograf3935.7351FNOENS Mieke35BEL2:10:166:11 9.72122F35ANTWERPEN
Vos photos grâce à Sportograf3936.5362MOSUSE Ronny39BEL2:10:166:11 9.72586M35HOFSTADE (BT.)
Vos photos grâce à Sportograf3937.5354VERKAEREN Bertrand38BEL2:10:166:11 9.72587M35STEENOKKERZEEL
Vos photos grâce à Sportograf3938.8071ROELANT Bart43BEL2:10:176:11 9.72483M40SINT-NIKLAAS
Vos photos grâce à Sportograf3939.7262FZAMMATTEO Nathalie42BEL2:10:176:11 9.72108F40GELBRESSEE
Vos photos grâce à Sportograf3940.5564FHOLVOET Anne44BEL2:10:186:11 9.71109F40BRUXELLES 1
Vos photos grâce à Sportograf3941.8057VERHEYEN Matthias21BEL2:10:196:11 9.711248SEHHERENTALS
Vos photos grâce à Sportograf3942.9483VINCENT Bruno49BEL2:10:206:11 9.71393M45RANSART
Vos photos grâce à Sportograf3943.9482FVINCENT Sophie21BEL2:10:206:11 9.71343SEFRANSART
Vos photos grâce à Sportograf3944.6178FCLAESSENS Ilse32BEL2:10:206:11 9.71344SEFAALST
Vos photos grâce à Sportograf3945.7336COESSENS Johnny55BEL2:10:206:11 9.71112M55AALST
Vos photos grâce à Sportograf3946.3553FDEVINE Zarna31GBR2:10:226:11 9.71345SEFLOW FELL, GATESGEAD
Vos photos grâce à Sportograf3947.3034SHALLO Mohamed25BEL2:10:226:11 9.711249SEHIXELLES
Vos photos grâce à Sportograf3948.3757FMCBETH Maria50GBR2:10:236:11 9.7142F50BRONHAM BEDFORD
Vos photos grâce à Sportograf3949.6814KRACIK Ladislav34CZE2:10:256:11 9.711250SEHBRNO
Vos photos grâce à Sportograf3950.6818FNERADOVA Jana24CZE2:10:256:11 9.71346SEFBRNO
Vos photos grâce à Sportograf3951.6186FDENHAUT MicheleFRA2:10:266:11 9.70-ROUVRAY
Vos photos grâce à Sportograf3952.4950LEFEVRE Jonathan24FRA2:10:266:11 9.701251SEHVINCENNES
Vos photos grâce à Sportograf3953.3431CEREGHETTI Julien25BEL2:10:276:12 9.701252SEHBINCHE
Vos photos grâce à Sportograf3954.6503MARTINEZ Xavier29BEL2:10:356:12 9.691253SEHIXELLES
Vos photos grâce à Sportograf3955.8006D'OLISLAGER Patrick48BEL2:10:386:12 9.69394M45ST.NIKLAAS
Vos photos grâce à Sportograf3956.7182LEORZA Raul34ESP2:10:396:12 9.691254SEHZARAGOZA
Vos photos grâce à Sportograf3957.7171FANSON Esther31BEL2:10:406:12 9.69347SEFBRUXELLES
Vos photos grâce à Sportograf3958.3643VAN WESENBEECK Georges62BEL2:10:426:12 9.6851M60ANTWERPEN
Vos photos grâce à Sportograf3959.9750SOUHAIL Farid44BEL2:10:446:12 9.68484M40BRAINE-L'ALLEUD
Vos photos grâce à Sportograf3960.7995VANELSLANDER Hugues16BEL2:10:466:12 9.681255SEHBRUXELLES
Vos photos grâce à Sportograf3961.7963IKER Mathieu29BEL2:10:486:13 9.681256SEHKRAAINEM
Vos photos grâce à Sportograf3962.9114VAN REIJEN Laurens48NLD2:10:516:13 9.67395M45BRUSSEL
Vos photos grâce à Sportograf3963.8145FVALLE Julie29BEL2:10:546:13 9.67348SEFBREE
Vos photos grâce à Sportograf3964.3917FZINDEL Jacqueline42NLD2:10:556:13 9.67110F40BARENDRECHT
Vos photos grâce à Sportograf3965.7506GARCIA BURGUES Julio54BEL2:10:556:13 9.67239M50BRUXELLES
Vos photos grâce à Sportograf3966.3762FWATSON Linda44GBR2:10:566:13 9.67111F40BEDFORD
Vos photos grâce à Sportograf3967.4999SCHOENMAKERS Victor57NLD2:10:566:13 9.67113M55ROTTERDAM
Vos photos grâce à Sportograf3968.7588DELATTRE Kris52BEL2:10:566:13 9.67240M50ST-MARTENS-LENNIK
Vos photos grâce à Sportograf3969.7570FDELATTRE Sien22BEL2:10:566:13 9.67349SEFLENNIK
Vos photos grâce à Sportograf3970.5961FMARCOTTE Claudine60FRA2:10:586:13 9.667F60PARIS
Vos photos grâce à Sportograf3971.8204FSOBRY Petra41BEL2:10:596:13 9.66112F40BRUXELLES 1
Vos photos grâce à Sportograf3972.4042FVAN KERCKEM Klaartje29BEL2:10:596:13 9.66350SEFGENT
Vos photos grâce à Sportograf3973.8075MASSET Philippe46BEL2:11:026:13 9.66396M45UCCLE
Vos photos grâce à Sportograf3974.5086ROOS Frank53NLD2:11:046:13 9.66241M50ROTTERDAM
Vos photos grâce à Sportograf3975.5330FVANDAM Anita49BEL2:11:086:13 9.65109F45DIEGEM
Vos photos grâce à Sportograf3976.9275FOSSEUR Olivier502:11:106:14 9.65242M50
Vos photos grâce à Sportograf3977.6581FMARRON Aisling25BEL2:11:136:14 9.65351SEFBRUSSELS
Vos photos grâce à Sportograf3978.3737FFERRARI Sophia23GBR2:11:166:14 9.64352SEFWILLINGTON BEDFORD
Vos photos grâce à Sportograf3979.4436THOMAS Eric44BEL2:11:176:14 9.64485M40OPWIJK
Vos photos grâce à Sportograf3980.6650TOKARZ Bartek34BEL2:11:186:14 9.641257SEHBRUXELLES
Vos photos grâce à Sportograf3981.5187FFABER Marielle42BEL2:11:196:14 9.64113F40HUN ( ANHEE)
Vos photos grâce à Sportograf3982.9953PRIOR David63GBR2:11:196:14 9.6452M60COPLE BEDFORD
Vos photos grâce à Sportograf3983.4733FJENKINS Mairi55BEL2:11:206:14 9.6422F55TERVUREN
Vos photos grâce à Sportograf3984.4575FVAN DE VOORDE Liesje28BEL2:11:206:14 9.64353SEFOPWIJK
Vos photos grâce à Sportograf3985.3856FSTEEN Els39BEL2:11:206:14 9.64123F35STABROEK
Vos photos grâce à Sportograf3986.4638FLANCKRIET Anne32BEL2:11:206:14 9.64354SEFBRUGGE
Vos photos grâce à Sportograf3987.7569BERGHMAN Freddy45BEL2:11:216:14 9.64397M45OPWIJK
Vos photos grâce à Sportograf3988.6228VAN GRIMBERGEN Laurent31BEL2:11:216:14 9.641258SEHBRAINE-L'ALLEUD
Vos photos grâce à Sportograf3989.4384ROGISTER Vincent42BEL2:11:216:14 9.64486M40SOMBREFFE
Vos photos grâce à Sportograf3990.4451FDE BLOCK Ilse33BEL2:11:226:14 9.64355SEFMERCHTEM
Vos photos grâce à Sportograf3991.4742ARUNACHALAM KRISHNAN Srinuvasan28BEL2:11:236:14 9.631259SEHBRUSSELS
Vos photos grâce à Sportograf3992.6967FSALONIEMI-CRYANS Merja42BEL2:11:236:14 9.63114F40SINT STEVENS WOLUWE
Vos photos grâce à Sportograf3993.3979FVAANDRAGER Yvonne52NLD2:11:256:14 9.6343F50BARENDRECHT
Vos photos grâce à Sportograf3994.8001STIERS Johan42BEL2:11:286:14 9.63487M40WOLVERTEM
Vos photos grâce à Sportograf3995.9127NACKARD Kevin37BEL2:11:306:14 9.63588M35
Vos photos grâce à Sportograf3996.6592GOOSSENS Luc47BEL2:11:316:15 9.62398M45LOKEREN
Vos photos grâce à Sportograf3997.7312FVAN WESENBEECK Annemie53BEL2:11:316:15 9.6244F50KALMTHOUT
Vos photos grâce à Sportograf3998.9603FBOULANGER Veerle27BEL2:11:316:15 9.62356SEFANDERLECHT
Vos photos grâce à Sportograf3999.7832FDECLERCK Lieselot27BEL2:11:316:15 9.62357SEFJETTE
Vos photos grâce à Sportograf4000.7311FBOSMANS Carine44BEL2:11:316:15 9.62115F40KALMTHOUT
DNF: abandon; DSQ: disqualifié; Vitesse en km/h
ChronoRace - Electronic Timing - www.chronorace.be